createdAt,value
2017-07-05T00:00:33.328Z,52.77
2017-07-05T00:01:33.983Z,52.67
2017-07-05T00:02:34.603Z,52.87
2017-07-05T00:03:35.220Z,53.18
2017-07-05T00:04:35.838Z,53.06
2017-07-05T00:05:36.456Z,52.96
2017-07-05T00:06:37.123Z,52.87
2017-07-05T00:07:37.743Z,52.77
2017-07-05T00:08:38.360Z,52.77
2017-07-05T00:09:39.037Z,52.77
2017-07-05T00:10:39.640Z,52.48
2017-07-05T00:11:40.307Z,52.48
2017-07-05T00:12:40.929Z,52.48
2017-07-05T00:13:41.544Z,52.67
2017-07-05T00:14:42.162Z,52.67
2017-07-05T00:15:42.778Z,52.87
2017-07-05T00:16:43.446Z,52.77
2017-07-05T00:17:44.067Z,52.67
2017-07-05T00:18:44.683Z,52.58
2017-07-05T00:19:45.302Z,52.77
2017-07-05T00:20:45.956Z,52.58
2017-07-05T00:21:46.624Z,52.77
2017-07-05T00:22:47.275Z,52.87
2017-07-05T00:23:47.893Z,52.67
2017-07-05T00:24:48.514Z,52.67
2017-07-05T00:25:49.130Z,52.87
2017-07-05T00:26:49.825Z,52.87
2017-07-05T00:27:50.430Z,52.77
2017-07-05T00:28:51.047Z,52.67
2017-07-05T00:29:51.665Z,52.77
2017-07-05T00:30:52.283Z,52.39
2017-07-05T00:31:52.982Z,52.58
2017-07-05T00:32:53.580Z,52.48
2017-07-05T00:33:54.198Z,52.67
2017-07-05T00:34:54.815Z,52.48
2017-07-05T00:35:55.433Z,52.67
2017-07-05T00:36:56.101Z,52.87
2017-07-05T00:37:56.718Z,52.77
2017-07-05T00:38:57.341Z,52.77
2017-07-05T00:39:57.955Z,52.58
2017-07-05T00:40:58.572Z,52.67
2017-07-05T00:41:59.239Z,52.77
2017-07-05T00:42:59.857Z,52.67
2017-07-05T00:44:00.501Z,52.48
2017-07-05T00:45:01.104Z,52.67
2017-07-05T00:46:01.729Z,52.87
2017-07-05T00:47:02.394Z,53.06
2017-07-05T00:48:03.050Z,53.16
2017-07-05T00:49:03.672Z,53.06
2017-07-05T00:50:04.283Z,53.16
2017-07-05T00:51:04.903Z,53.25
2017-07-05T00:52:05.573Z,53.34
2017-07-05T00:53:06.191Z,53.44
2017-07-05T00:54:06.809Z,53.34
2017-07-05T00:55:07.425Z,53.53
2017-07-05T00:56:08.042Z,53.34
2017-07-05T00:57:08.711Z,53.34
2017-07-05T00:58:09.328Z,53.53
2017-07-05T00:59:09.946Z,53.53
2017-07-05T01:00:10.564Z,53.44
2017-07-05T01:01:11.215Z,53.44
2017-07-05T01:02:11.886Z,53.44
2017-07-05T01:03:12.562Z,53.16
2017-07-05T01:04:13.166Z,53.53
2017-07-05T01:05:13.783Z,54.08
2017-07-05T01:06:14.400Z,53.80
2017-07-05T01:07:15.101Z,53.82
2017-07-05T01:08:15.749Z,53.80
2017-07-05T01:09:16.377Z,53.89
2017-07-05T01:10:16.981Z,53.89
2017-07-05T01:11:17.599Z,53.61
2017-07-05T01:12:18.294Z,53.80
2017-07-05T01:13:18.898Z,53.61
2017-07-05T01:14:19.516Z,53.99
2017-07-05T01:15:20.141Z,54.02
2017-07-05T01:16:20.755Z,53.99
2017-07-05T01:17:21.423Z,53.89
2017-07-05T01:18:22.039Z,53.80
2017-07-05T01:19:22.658Z,53.89
2017-07-05T01:20:23.281Z,54.11
2017-07-05T01:21:23.897Z,53.99
2017-07-05T01:22:24.562Z,54.18
2017-07-05T01:23:25.187Z,53.80
2017-07-05T01:24:25.803Z,54.11
2017-07-05T01:25:26.418Z,53.44
2017-07-05T01:26:27.036Z,53.51
2017-07-05T01:27:27.702Z,53.53
2017-07-05T01:28:28.353Z,53.63
2017-07-05T01:29:28.975Z,53.16
2017-07-05T01:30:29.591Z,53.32
2017-07-05T01:31:30.209Z,53.80
2017-07-05T01:32:30.910Z,54.21
2017-07-05T01:33:31.530Z,53.70
2017-07-05T01:34:32.146Z,53.89
2017-07-05T01:35:32.763Z,53.61
2017-07-05T01:36:33.387Z,53.80
2017-07-05T01:37:34.051Z,53.70
2017-07-05T01:38:34.669Z,53.51
2017-07-05T01:39:35.286Z,53.61
2017-07-05T01:40:35.902Z,53.99
2017-07-05T01:41:36.521Z,53.70
2017-07-05T01:42:37.215Z,53.99
2017-07-05T01:43:37.818Z,53.61
2017-07-05T01:44:38.437Z,53.61
2017-07-05T01:45:39.056Z,53.80
2017-07-05T01:46:39.672Z,53.89
2017-07-05T01:47:40.342Z,53.80
2017-07-05T01:48:40.973Z,53.61
2017-07-05T01:49:41.579Z,53.73
2017-07-05T01:50:42.195Z,53.73
2017-07-05T01:51:42.814Z,53.89
2017-07-05T01:52:43.511Z,53.63
2017-07-05T01:53:44.129Z,53.92
2017-07-05T01:54:44.759Z,53.63
2017-07-05T01:55:45.374Z,53.73
2017-07-05T01:56:45.995Z,53.73
2017-07-05T01:57:46.695Z,53.73
2017-07-05T01:58:47.312Z,53.53
2017-07-05T01:59:47.929Z,53.61
2017-07-05T02:00:48.545Z,53.99
2017-07-05T02:01:49.164Z,53.89
2017-07-05T02:02:49.833Z,54.08
2017-07-05T02:03:50.451Z,53.99
2017-07-05T02:04:51.068Z,54.37
2017-07-05T02:05:51.711Z,54.08
2017-07-05T02:06:52.364Z,53.99
2017-07-05T02:07:53.031Z,54.27
2017-07-05T02:08:53.654Z,54.47
2017-07-05T02:09:54.271Z,54.37
2017-07-05T02:10:54.885Z,54.37
2017-07-05T02:11:55.506Z,54.75
2017-07-05T02:12:56.172Z,54.85
2017-07-05T02:13:56.792Z,54.56
2017-07-05T02:14:57.449Z,54.18
2017-07-05T02:15:58.096Z,54.08
2017-07-05T02:16:58.716Z,54.27
2017-07-05T02:17:59.383Z,53.99
2017-07-05T02:19:00.000Z,53.99
2017-07-05T02:20:00.616Z,53.99
2017-07-05T02:21:01.240Z,53.80
2017-07-05T02:22:01.860Z,54.18
2017-07-05T02:23:02.524Z,54.18
2017-07-05T02:24:03.141Z,54.27
2017-07-05T02:25:03.756Z,54.18
2017-07-05T02:26:04.375Z,54.18
2017-07-05T02:27:05.024Z,54.08
2017-07-05T02:28:05.694Z,54.47
2017-07-05T02:29:06.311Z,54.37
2017-07-05T02:30:06.927Z,54.08
2017-07-05T02:31:07.544Z,54.08
2017-07-05T02:32:08.161Z,54.08
2017-07-05T02:33:08.829Z,54.18
2017-07-05T02:34:09.452Z,54.08
2017-07-05T02:35:10.066Z,54.08
2017-07-05T02:36:10.683Z,54.08
2017-07-05T02:37:11.300Z,54.08
2017-07-05T02:38:11.969Z,54.27
2017-07-05T02:39:12.590Z,53.89
2017-07-05T02:40:13.206Z,54.18
2017-07-05T02:41:13.822Z,54.27
2017-07-05T02:42:14.463Z,54.47
2017-07-05T02:43:15.117Z,53.99
2017-07-05T02:44:15.734Z,54.18
2017-07-05T02:45:16.350Z,54.18
2017-07-05T02:46:16.968Z,53.89
2017-07-05T02:47:17.592Z,53.61
2017-07-05T02:48:18.255Z,53.70
2017-07-05T02:49:18.873Z,53.80
2017-07-05T02:50:19.491Z,54.27
2017-07-05T02:51:20.107Z,54.08
2017-07-05T02:52:20.758Z,54.08
2017-07-05T02:53:21.424Z,54.08
2017-07-05T02:54:22.042Z,54.08
2017-07-05T02:55:22.660Z,54.18
2017-07-05T02:56:23.308Z,54.18
2017-07-05T02:57:23.925Z,53.89
2017-07-05T02:58:24.617Z,53.51
2017-07-05T02:59:25.222Z,53.80
2017-07-05T03:00:25.840Z,53.61
2017-07-05T03:01:26.457Z,53.99
2017-07-05T03:02:27.075Z,53.70
2017-07-05T03:03:27.741Z,53.80
2017-07-05T03:04:28.358Z,53.99
2017-07-05T03:05:28.976Z,53.99
2017-07-05T03:06:29.622Z,53.70
2017-07-05T03:07:30.226Z,53.70
2017-07-05T03:08:30.894Z,54.08
2017-07-05T03:09:31.513Z,54.18
2017-07-05T03:10:32.129Z,54.08
2017-07-05T03:11:32.745Z,53.41
2017-07-05T03:12:33.396Z,53.32
2017-07-05T03:13:34.065Z,53.51
2017-07-05T03:14:34.681Z,53.51
2017-07-05T03:15:35.301Z,53.51
2017-07-05T03:16:35.945Z,53.41
2017-07-05T03:17:36.552Z,53.41
2017-07-05T03:18:37.215Z,53.41
2017-07-05T03:19:37.833Z,53.51
2017-07-05T03:20:38.449Z,53.22
2017-07-05T03:21:39.066Z,53.89
2017-07-05T03:22:39.716Z,53.32
2017-07-05T03:23:40.390Z,53.61
2017-07-05T03:24:41.004Z,53.89
2017-07-05T03:25:41.622Z,53.99
2017-07-05T03:26:42.266Z,53.99
2017-07-05T03:27:42.904Z,53.99
2017-07-05T03:28:43.582Z,53.70
2017-07-05T03:29:44.185Z,53.80
2017-07-05T03:30:44.802Z,53.99
2017-07-05T03:31:45.419Z,54.08
2017-07-05T03:32:46.035Z,53.89
2017-07-05T03:33:46.703Z,53.99
2017-07-05T03:34:47.344Z,53.99
2017-07-05T03:35:47.950Z,53.99
2017-07-05T03:36:48.568Z,53.99
2017-07-05T03:37:49.225Z,53.80
2017-07-05T03:38:49.921Z,53.89
2017-07-05T03:39:50.521Z,53.99
2017-07-05T03:40:51.137Z,53.99
2017-07-05T03:41:51.757Z,53.99
2017-07-05T03:42:52.380Z,53.99
2017-07-05T03:43:52.994Z,53.80
2017-07-05T03:44:53.611Z,54.18
2017-07-05T03:45:54.234Z,54.08
2017-07-05T03:46:54.848Z,53.70
2017-07-05T03:47:55.467Z,53.99
2017-07-05T03:48:56.151Z,53.99
2017-07-05T03:49:56.750Z,53.61
2017-07-05T03:50:57.398Z,53.77
2017-07-05T03:51:58.014Z,53.86
2017-07-05T03:52:58.631Z,54.15
2017-07-05T03:53:59.300Z,54.06
2017-07-05T03:54:59.917Z,54.06
2017-07-05T03:56:00.538Z,53.96
2017-07-05T03:57:01.155Z,53.77
2017-07-05T03:58:01.773Z,53.67
2017-07-05T03:59:02.442Z,53.77
2017-07-05T04:00:03.059Z,54.34
2017-07-05T04:01:03.678Z,54.06
2017-07-05T04:02:04.296Z,54.25
2017-07-05T04:03:04.912Z,54.34
2017-07-05T04:04:05.582Z,54.82
2017-07-05T04:05:06.200Z,54.72
2017-07-05T04:06:06.848Z,54.34
2017-07-05T04:07:07.493Z,54.63
2017-07-05T04:08:08.131Z,55.11
2017-07-05T04:09:08.832Z,55.20
2017-07-05T04:10:09.451Z,55.20
2017-07-05T04:11:10.068Z,55.20
2017-07-05T04:12:10.745Z,55.40
2017-07-05T04:13:11.356Z,55.20
2017-07-05T04:14:12.026Z,55.20
2017-07-05T04:15:12.677Z,55.30
2017-07-05T04:16:13.303Z,55.20
2017-07-05T04:17:13.916Z,55.20
2017-07-05T04:18:14.563Z,55.30
2017-07-05T04:19:15.213Z,55.40
2017-07-05T04:20:15.837Z,55.20
2017-07-05T04:21:16.457Z,55.30
2017-07-05T04:22:17.079Z,55.30
2017-07-05T04:23:17.693Z,55.20
2017-07-05T04:24:18.393Z,55.20
2017-07-05T04:25:19.011Z,55.20
2017-07-05T04:26:19.665Z,55.20
2017-07-05T04:27:20.280Z,55.11
2017-07-05T04:28:20.903Z,55.11
2017-07-05T04:29:21.574Z,55.20
2017-07-05T04:30:22.188Z,55.20
2017-07-05T04:31:22.839Z,55.40
2017-07-05T04:32:23.491Z,54.63
2017-07-05T04:33:24.108Z,54.53
2017-07-05T04:34:24.774Z,54.63
2017-07-05T04:35:25.393Z,54.82
2017-07-05T04:36:26.035Z,54.53
2017-07-05T04:37:26.639Z,54.72
2017-07-05T04:38:27.323Z,54.63
2017-07-05T04:39:28.005Z,54.44
2017-07-05T04:40:28.608Z,54.82
2017-07-05T04:41:29.226Z,54.56
2017-07-05T04:42:29.875Z,54.85
2017-07-05T04:43:30.504Z,54.56
2017-07-05T04:44:31.190Z,54.85
2017-07-05T04:45:31.794Z,54.56
2017-07-05T04:46:32.412Z,54.75
2017-07-05T04:47:33.063Z,54.66
2017-07-05T04:48:33.664Z,54.82
2017-07-05T04:49:34.332Z,55.30
2017-07-05T04:50:34.985Z,55.20
2017-07-05T04:51:35.632Z,55.11
2017-07-05T04:52:36.251Z,55.49
2017-07-05T04:53:36.868Z,55.58
2017-07-05T04:54:37.539Z,55.20
2017-07-05T04:55:38.158Z,55.30
2017-07-05T04:56:38.785Z,55.11
2017-07-05T04:57:39.397Z,55.40
2017-07-05T04:58:40.015Z,55.58
2017-07-05T04:59:40.686Z,55.58
2017-07-05T05:00:41.305Z,55.49
2017-07-05T05:01:41.925Z,55.49
2017-07-05T05:02:42.538Z,55.58
2017-07-05T05:03:43.164Z,55.30
2017-07-05T05:04:43.828Z,55.30
2017-07-05T05:05:44.448Z,55.58
2017-07-05T05:06:45.073Z,55.77
2017-07-05T05:07:45.684Z,55.20
2017-07-05T05:08:46.303Z,55.68
2017-07-05T05:09:46.996Z,55.58
2017-07-05T05:10:47.602Z,55.61
2017-07-05T05:11:48.247Z,55.40
2017-07-05T05:12:48.883Z,55.77
2017-07-05T05:13:49.485Z,55.30
2017-07-05T05:14:50.155Z,55.32
2017-07-05T05:15:50.804Z,55.40
2017-07-05T05:16:51.419Z,55.40
2017-07-05T05:17:52.037Z,55.42
2017-07-05T05:18:52.687Z,55.30
2017-07-05T05:19:53.306Z,55.42
2017-07-05T05:20:53.925Z,55.52
2017-07-05T05:21:54.544Z,55.23
2017-07-05T05:22:55.186Z,55.23
2017-07-05T05:23:55.821Z,55.32
2017-07-05T05:24:56.477Z,55.42
2017-07-05T05:25:57.093Z,55.61
2017-07-05T05:26:57.713Z,55.71
2017-07-05T05:27:58.354Z,55.52
2017-07-05T05:28:59.004Z,55.61
2017-07-05T05:29:59.674Z,55.23
2017-07-05T05:31:00.295Z,55.42
2017-07-05T05:32:00.913Z,55.42
2017-07-05T05:33:01.529Z,55.42
2017-07-05T05:34:02.146Z,55.32
2017-07-05T05:35:02.817Z,55.13
2017-07-05T05:36:03.435Z,55.32
2017-07-05T05:37:04.052Z,55.52
2017-07-05T05:38:04.671Z,55.32
2017-07-05T05:39:05.292Z,55.32
2017-07-05T05:40:05.962Z,55.52
2017-07-05T05:41:06.579Z,55.42
2017-07-05T05:42:07.202Z,55.23
2017-07-05T05:43:07.821Z,55.52
2017-07-05T05:44:08.472Z,55.71
2017-07-05T05:45:09.141Z,55.42
2017-07-05T05:46:09.790Z,55.23
2017-07-05T05:47:10.409Z,55.32
2017-07-05T05:48:11.068Z,55.23
2017-07-05T05:49:11.677Z,55.26
2017-07-05T05:50:12.344Z,55.35
2017-07-05T05:51:12.964Z,55.26
2017-07-05T05:52:13.642Z,55.16
2017-07-05T05:53:14.317Z,55.26
2017-07-05T05:54:14.925Z,55.35
2017-07-05T05:55:15.629Z,55.26
2017-07-05T05:56:16.247Z,55.35
2017-07-05T05:57:16.890Z,55.35
2017-07-05T05:58:17.572Z,55.45
2017-07-05T05:59:18.250Z,54.68
2017-07-05T06:00:18.929Z,54.68
2017-07-05T06:01:19.536Z,54.68
2017-07-05T06:02:20.186Z,54.68
2017-07-05T06:03:20.794Z,54.88
2017-07-05T06:04:21.412Z,54.68
2017-07-05T06:05:22.080Z,54.49
2017-07-05T06:06:22.698Z,54.39
2017-07-05T06:07:23.316Z,54.61
2017-07-05T06:08:23.932Z,54.90
2017-07-05T06:09:24.552Z,54.68
2017-07-05T06:10:25.220Z,54.71
2017-07-05T06:11:25.838Z,54.90
2017-07-05T06:12:26.457Z,54.71
2017-07-05T06:13:27.100Z,54.90
2017-07-05T06:14:27.712Z,54.52
2017-07-05T06:15:28.383Z,54.52
2017-07-05T06:16:29.003Z,54.52
2017-07-05T06:17:29.626Z,54.14
2017-07-05T06:18:30.242Z,54.14
2017-07-05T06:19:30.866Z,54.43
2017-07-05T06:20:31.536Z,54.14
2017-07-05T06:21:32.194Z,53.94
2017-07-05T06:22:32.813Z,54.23
2017-07-05T06:23:33.430Z,53.75
2017-07-05T06:24:34.049Z,54.07
2017-07-05T06:25:34.722Z,53.69
2017-07-05T06:26:35.341Z,54.07
2017-07-05T06:27:35.961Z,54.07
2017-07-05T06:28:36.579Z,54.26
2017-07-05T06:29:37.207Z,53.40
2017-07-05T06:30:37.874Z,53.59
2017-07-05T06:31:38.520Z,53.11
2017-07-05T06:32:39.127Z,53.40
2017-07-05T06:33:39.949Z,53.59
2017-07-05T06:34:40.566Z,53.97
2017-07-05T06:35:41.263Z,53.59
2017-07-05T06:36:41.917Z,53.59
2017-07-05T06:37:42.535Z,53.30
2017-07-05T06:38:43.155Z,53.20
2017-07-05T06:39:43.808Z,53.49
2017-07-05T06:40:44.478Z,53.59
2017-07-05T06:41:45.104Z,53.59
2017-07-05T06:42:45.721Z,53.40
2017-07-05T06:43:46.341Z,53.49
2017-07-05T06:44:46.981Z,53.49
2017-07-05T06:45:47.632Z,53.04
2017-07-05T06:46:48.258Z,53.33
2017-07-05T06:47:48.875Z,54.28
2017-07-05T06:48:49.503Z,53.81
2017-07-05T06:49:50.124Z,53.71
2017-07-05T06:50:50.788Z,53.14
2017-07-05T06:51:51.409Z,53.62
2017-07-05T06:52:52.036Z,53.52
2017-07-05T06:53:52.653Z,53.62
2017-07-05T06:54:53.275Z,53.62
2017-07-05T06:55:53.943Z,52.95
2017-07-05T06:56:54.563Z,52.95
2017-07-05T06:57:55.186Z,53.04
2017-07-05T06:58:55.803Z,53.14
2017-07-05T06:59:56.455Z,53.33
2017-07-05T07:00:57.135Z,53.42
2017-07-05T07:01:57.744Z,53.14
2017-07-05T07:02:58.363Z,53.23
2017-07-05T07:03:58.984Z,52.95
2017-07-05T07:04:59.629Z,53.14
2017-07-05T07:06:00.288Z,53.23
2017-07-05T07:07:00.909Z,52.95
2017-07-05T07:08:01.531Z,52.95
2017-07-05T07:09:02.184Z,52.95
2017-07-05T07:10:02.838Z,52.75
2017-07-05T07:11:03.514Z,52.85
2017-07-05T07:12:04.163Z,53.04
2017-07-05T07:13:04.786Z,53.04
2017-07-05T07:14:05.406Z,53.14
2017-07-05T07:15:06.052Z,52.95
2017-07-05T07:16:06.712Z,53.04
2017-07-05T07:17:07.365Z,52.66
2017-07-05T07:18:08.018Z,53.04
2017-07-05T07:19:08.625Z,53.07
2017-07-05T07:20:09.449Z,53.26
2017-07-05T07:21:10.119Z,53.16
2017-07-05T07:22:10.745Z,52.87
2017-07-05T07:23:11.398Z,53.16
2017-07-05T07:24:12.079Z,52.87
2017-07-05T07:25:12.689Z,52.59
2017-07-05T07:26:13.360Z,52.97
2017-07-05T07:27:13.980Z,52.59
2017-07-05T07:28:14.603Z,52.59
2017-07-05T07:29:15.223Z,52.69
2017-07-05T07:30:15.846Z,52.69
2017-07-05T07:31:16.516Z,52.87
2017-07-05T07:32:17.137Z,52.69
2017-07-05T07:33:17.757Z,52.78
2017-07-05T07:34:18.380Z,52.59
2017-07-05T07:35:19.003Z,53.07
2017-07-05T07:36:19.677Z,52.97
2017-07-05T07:37:20.302Z,52.62
2017-07-05T07:38:20.959Z,52.59
2017-07-05T07:39:21.580Z,52.71
2017-07-05T07:40:22.203Z,52.81
2017-07-05T07:41:22.877Z,52.62
2017-07-05T07:42:23.496Z,53.00
2017-07-05T07:43:24.143Z,52.91
2017-07-05T07:44:24.779Z,53.09
2017-07-05T07:45:25.386Z,52.62
2017-07-05T07:46:26.060Z,52.91
2017-07-05T07:47:26.679Z,53.12
2017-07-05T07:48:27.300Z,52.74
2017-07-05T07:49:27.921Z,52.93
2017-07-05T07:50:28.542Z,52.74
2017-07-05T07:51:29.217Z,52.64
2017-07-05T07:52:29.842Z,52.45
2017-07-05T07:53:30.459Z,52.45
2017-07-05T07:54:31.082Z,52.55
2017-07-05T07:55:31.736Z,52.55
2017-07-05T07:56:32.391Z,52.16
2017-07-05T07:57:33.013Z,52.16
2017-07-05T07:58:33.634Z,52.55
2017-07-05T07:59:34.255Z,52.09
2017-07-05T08:00:34.877Z,52.28
2017-07-05T08:01:35.550Z,52.48
2017-07-05T08:02:36.174Z,52.09
2017-07-05T08:03:36.796Z,52.28
2017-07-05T08:04:37.451Z,52.19
2017-07-05T08:05:38.074Z,52.28
2017-07-05T08:06:38.781Z,52.28
2017-07-05T08:07:39.408Z,52.28
2017-07-05T08:08:40.032Z,52.22
2017-07-05T08:09:40.653Z,52.19
2017-07-05T08:10:41.275Z,52.22
2017-07-05T08:11:41.954Z,51.45
2017-07-05T08:12:42.574Z,51.45
2017-07-05T08:13:43.196Z,51.45
2017-07-05T08:14:43.819Z,51.64
2017-07-05T08:15:44.498Z,51.06
2017-07-05T08:16:45.159Z,51.45
2017-07-05T08:17:45.782Z,51.35
2017-07-05T08:18:46.407Z,51.06
2017-07-05T08:19:47.028Z,51.06
2017-07-05T08:20:47.682Z,50.39
2017-07-05T08:21:48.357Z,49.91
2017-07-05T08:22:48.979Z,49.52
2017-07-05T08:23:49.603Z,50.01
2017-07-05T08:24:50.226Z,50.39
2017-07-05T08:25:50.882Z,51.06
2017-07-05T08:26:51.555Z,50.70
2017-07-05T08:27:52.180Z,50.51
2017-07-05T08:28:52.803Z,50.03
2017-07-05T08:29:53.427Z,49.93
2017-07-05T08:30:54.076Z,49.65
2017-07-05T08:31:54.736Z,49.84
2017-07-05T08:32:55.359Z,49.55
2017-07-05T08:33:55.987Z,49.36
2017-07-05T08:34:56.604Z,49.46
2017-07-05T08:35:57.234Z,48.88
2017-07-05T08:36:57.906Z,48.69
2017-07-05T08:37:58.528Z,48.79
2017-07-05T08:38:59.153Z,48.69
2017-07-05T08:39:59.774Z,48.88
2017-07-05T08:41:00.397Z,48.79
2017-07-05T08:42:01.070Z,48.79
2017-07-05T08:43:01.693Z,47.92
2017-07-05T08:44:02.323Z,47.85
2017-07-05T08:45:02.943Z,47.85
2017-07-05T08:46:03.625Z,48.04
2017-07-05T08:47:04.285Z,48.90
2017-07-05T08:48:04.914Z,48.61
2017-07-05T08:49:05.532Z,48.07
2017-07-05T08:50:06.156Z,47.68
2017-07-05T08:51:06.778Z,47.20
2017-07-05T08:52:07.452Z,46.72
2017-07-05T08:53:08.075Z,47.00
2017-07-05T08:54:08.764Z,46.81
2017-07-05T08:55:09.370Z,47.10
2017-07-05T08:56:09.993Z,46.55
2017-07-05T08:57:10.673Z,46.06
2017-07-05T08:58:11.293Z,46.16
2017-07-05T08:59:11.917Z,45.97
2017-07-05T09:00:12.542Z,46.26
2017-07-05T09:01:13.166Z,46.47
2017-07-05T09:02:13.841Z,45.70
2017-07-05T09:03:14.465Z,45.32
2017-07-05T09:04:15.121Z,44.93
2017-07-05T09:05:15.752Z,45.03
2017-07-05T09:06:16.379Z,45.13
2017-07-05T09:07:17.048Z,44.65
2017-07-05T09:08:17.674Z,44.93
2017-07-05T09:09:18.299Z,44.65
2017-07-05T09:10:18.920Z,44.74
2017-07-05T09:11:19.547Z,44.07
2017-07-05T09:12:20.248Z,43.20
2017-07-05T09:13:20.936Z,43.30
2017-07-05T09:14:21.550Z,43.20
2017-07-05T09:15:22.170Z,43.23
2017-07-05T09:16:22.828Z,42.91
2017-07-05T09:17:23.508Z,42.53
2017-07-05T09:18:24.130Z,42.24
2017-07-05T09:19:24.787Z,42.14
2017-07-05T09:20:25.413Z,42.14
2017-07-05T09:21:26.070Z,42.43
2017-07-05T09:22:26.747Z,41.55
2017-07-05T09:23:27.370Z,42.41
2017-07-05T09:24:28.006Z,42.32
2017-07-05T09:25:28.623Z,42.50
2017-07-05T09:26:29.244Z,42.70
2017-07-05T09:27:29.942Z,42.60
2017-07-05T09:28:30.557Z,42.50
2017-07-05T09:29:31.178Z,42.89
2017-07-05T09:30:31.827Z,41.66
2017-07-05T09:31:32.425Z,42.43
2017-07-05T09:32:33.125Z,42.33
2017-07-05T09:33:33.736Z,41.95
2017-07-05T09:34:34.389Z,41.39
2017-07-05T09:35:34.999Z,40.61
2017-07-05T09:36:35.628Z,40.61
2017-07-05T09:37:36.300Z,41.01
2017-07-05T09:38:36.925Z,40.51
2017-07-05T09:39:37.581Z,40.63
2017-07-05T09:40:38.206Z,39.76
2017-07-05T09:41:38.831Z,39.66
2017-07-05T09:42:39.514Z,40.34
2017-07-05T09:43:40.153Z,40.43
2017-07-05T09:44:40.773Z,39.97
2017-07-05T09:45:41.405Z,39.68
2017-07-05T09:46:42.022Z,39.68
2017-07-05T09:47:42.697Z,40.07
2017-07-05T09:48:43.324Z,39.97
2017-07-05T09:49:43.945Z,39.11
2017-07-05T09:50:44.570Z,39.29
2017-07-05T09:51:45.202Z,38.81
2017-07-05T09:52:45.873Z,38.91
2017-07-05T09:53:46.497Z,39.11
2017-07-05T09:54:47.123Z,38.91
2017-07-05T09:55:47.749Z,39.11
2017-07-05T09:56:48.377Z,39.12
2017-07-05T09:57:49.053Z,38.91
2017-07-05T09:58:49.678Z,38.53
2017-07-05T09:59:50.328Z,38.62
2017-07-05T10:00:50.941Z,38.74
2017-07-05T10:01:51.565Z,38.64
2017-07-05T10:02:52.267Z,38.64
2017-07-05T10:03:52.916Z,38.35
2017-07-05T10:04:53.563Z,38.45
2017-07-05T10:05:54.189Z,37.58
2017-07-05T10:06:54.846Z,36.52
2017-07-05T10:07:55.536Z,35.94
2017-07-05T10:08:56.170Z,35.85
2017-07-05T10:09:56.783Z,35.36
2017-07-05T10:10:57.407Z,35.85
2017-07-05T10:11:58.036Z,36.04
2017-07-05T10:12:58.714Z,35.56
2017-07-05T10:13:59.341Z,36.04
2017-07-05T10:14:59.969Z,36.52
2017-07-05T10:16:00.590Z,36.43
2017-07-05T10:17:01.216Z,36.91
2017-07-05T10:18:01.897Z,36.61
2017-07-05T10:19:02.517Z,37.02
2017-07-05T10:20:03.150Z,36.15
2017-07-05T10:21:03.771Z,35.86
2017-07-05T10:22:04.430Z,35.67
2017-07-05T10:23:05.104Z,35.58
2017-07-05T10:24:05.730Z,35.98
2017-07-05T10:25:06.357Z,35.78
2017-07-05T10:26:07.007Z,35.98
2017-07-05T10:27:07.621Z,34.44
2017-07-05T10:28:08.297Z,34.44
2017-07-05T10:29:08.953Z,34.63
2017-07-05T10:30:09.564Z,34.36
2017-07-05T10:31:10.191Z,35.13
2017-07-05T10:32:10.814Z,34.94
2017-07-05T10:33:11.489Z,33.87
2017-07-05T10:34:12.120Z,31.75
2017-07-05T10:35:12.746Z,31.56
2017-07-05T10:36:13.373Z,30.98
2017-07-05T10:37:14.021Z,30.40
2017-07-05T10:38:14.710Z,29.91
2017-07-05T10:39:15.323Z,31.27
2017-07-05T10:40:15.982Z,31.56
2017-07-05T10:41:16.591Z,31.94
2017-07-05T10:42:17.221Z,31.48
2017-07-05T10:43:17.901Z,30.79
2017-07-05T10:44:18.525Z,30.59
2017-07-05T10:45:19.154Z,30.69
2017-07-05T10:46:19.781Z,31.17
2017-07-05T10:47:20.446Z,30.70
2017-07-05T10:48:21.117Z,30.99
2017-07-05T10:49:21.773Z,30.32
2017-07-05T10:50:22.396Z,30.80
2017-07-05T10:51:23.051Z,30.90
2017-07-05T10:52:23.651Z,30.61
2017-07-05T10:53:24.329Z,30.52
2017-07-05T10:54:24.959Z,30.52
2017-07-05T10:55:25.583Z,30.24
2017-07-05T10:56:26.207Z,30.62
2017-07-05T10:57:26.840Z,29.85
2017-07-05T10:58:27.512Z,29.17
2017-07-05T10:59:28.137Z,28.98
2017-07-05T11:00:28.763Z,29.17
2017-07-05T11:01:29.392Z,28.69
2017-07-05T11:02:30.045Z,28.48
2017-07-05T11:03:30.756Z,28.48
2017-07-05T11:04:31.383Z,28.77
2017-07-05T11:05:32.008Z,28.77
2017-07-05T11:06:32.637Z,28.48
2017-07-05T11:07:33.293Z,28.39
2017-07-05T11:08:33.952Z,27.23
2017-07-05T11:09:34.582Z,27.13
2017-07-05T11:10:35.209Z,27.22
2017-07-05T11:11:35.836Z,28.19
2017-07-05T11:12:36.493Z,27.23
2017-07-05T11:13:37.174Z,26.26
2017-07-05T11:14:37.798Z,25.01
2017-07-05T11:15:38.424Z,25.87
2017-07-05T11:16:39.049Z,26.26
2017-07-05T11:17:39.678Z,27.03
2017-07-05T11:18:40.354Z,26.28
2017-07-05T11:19:40.980Z,26.18
2017-07-05T11:20:41.611Z,26.66
2017-07-05T11:21:42.236Z,26.18
2017-07-05T11:22:42.862Z,26.67
2017-07-05T11:23:43.538Z,27.15
2017-07-05T11:24:44.166Z,27.06
2017-07-05T11:25:44.795Z,26.19
2017-07-05T11:26:45.454Z,25.90
2017-07-05T11:27:46.118Z,25.81
2017-07-05T11:28:46.798Z,26.48
2017-07-05T11:29:47.423Z,25.40
2017-07-05T11:30:48.049Z,25.90
2017-07-05T11:31:48.676Z,25.70
2017-07-05T11:32:49.336Z,26.08
2017-07-05T11:33:50.012Z,25.89
2017-07-05T11:34:50.640Z,26.37
2017-07-05T11:35:51.266Z,26.28
2017-07-05T11:36:51.898Z,26.97
2017-07-05T11:37:52.522Z,25.99
2017-07-05T11:38:53.199Z,25.50
2017-07-05T11:39:53.827Z,25.31
2017-07-05T11:40:54.453Z,25.78
2017-07-05T11:41:55.115Z,26.35
2017-07-05T11:42:55.743Z,27.03
2017-07-05T11:43:56.447Z,26.55
2017-07-05T11:44:57.060Z,27.23
2017-07-05T11:45:57.745Z,27.61
2017-07-05T11:46:58.360Z,27.04
2017-07-05T11:47:58.985Z,27.34
2017-07-05T11:48:59.661Z,27.82
2017-07-05T11:50:00.287Z,27.82
2017-07-05T11:51:00.914Z,27.34
2017-07-05T11:52:01.540Z,26.87
2017-07-05T11:53:02.168Z,27.35
2017-07-05T11:54:02.796Z,27.15
2017-07-05T11:55:03.421Z,27.15
2017-07-05T11:56:04.055Z,25.99
2017-07-05T11:57:04.729Z,25.90
2017-07-05T11:58:05.351Z,26.39
2017-07-05T11:59:06.025Z,26.77
2017-07-05T12:00:06.651Z,27.06
2017-07-05T12:01:07.285Z,26.77
2017-07-05T12:02:07.911Z,26.48
2017-07-05T12:03:08.538Z,26.48
2017-07-05T12:04:09.215Z,27.15
2017-07-05T12:05:09.876Z,27.56
2017-07-05T12:06:10.505Z,27.86
2017-07-05T12:07:11.132Z,27.09
2017-07-05T12:08:11.764Z,27.28
2017-07-05T12:09:12.441Z,26.41
2017-07-05T12:10:13.069Z,25.44
2017-07-05T12:11:13.697Z,25.24
2017-07-05T12:12:14.326Z,26.50
2017-07-05T12:13:14.988Z,26.30
2017-07-05T12:14:15.870Z,26.21
2017-07-05T12:15:16.503Z,26.51
2017-07-05T12:16:17.167Z,26.12
2017-07-05T12:17:17.794Z,25.83
2017-07-05T12:18:18.447Z,25.93
2017-07-05T12:19:19.113Z,25.44
2017-07-05T12:20:19.768Z,25.34
2017-07-05T12:21:20.384Z,25.72
2017-07-05T12:22:21.014Z,26.01
2017-07-05T12:23:21.674Z,25.83
2017-07-05T12:24:22.363Z,25.44
2017-07-05T12:25:23.003Z,24.77
2017-07-05T12:26:23.618Z,25.63
2017-07-05T12:27:24.247Z,25.15
2017-07-05T12:28:24.875Z,24.86
2017-07-05T12:29:25.555Z,25.15
2017-07-05T12:30:26.184Z,25.05
2017-07-05T12:31:26.815Z,24.86
2017-07-05T12:32:27.442Z,24.97
2017-07-05T12:33:28.068Z,24.78
2017-07-05T12:34:28.751Z,23.42
2017-07-05T12:35:29.382Z,23.50
2017-07-05T12:36:30.034Z,23.70
2017-07-05T12:37:30.649Z,23.70
2017-07-05T12:38:31.280Z,23.99
2017-07-05T12:39:31.963Z,24.57
2017-07-05T12:40:32.588Z,22.74
2017-07-05T12:41:33.218Z,22.54
2017-07-05T12:42:33.848Z,23.80
2017-07-05T12:43:34.482Z,22.83
2017-07-05T12:44:35.158Z,22.06
2017-07-05T12:45:35.785Z,21.96
2017-07-05T12:46:36.414Z,22.64
2017-07-05T12:47:37.045Z,22.74
2017-07-05T12:48:37.674Z,22.44
2017-07-05T12:49:38.352Z,22.44
2017-07-05T12:50:38.985Z,22.26
2017-07-05T12:51:39.611Z,22.36
2017-07-05T12:52:40.241Z,22.55
2017-07-05T12:53:40.876Z,22.36
2017-07-05T12:54:41.552Z,22.16
2017-07-05T12:55:42.213Z,22.06
2017-07-05T12:56:42.901Z,20.81
2017-07-05T12:57:43.517Z,20.99
2017-07-05T12:58:44.147Z,22.06
2017-07-05T12:59:44.825Z,22.55
2017-07-05T13:00:45.453Z,22.65